»·PEaware :: URF5150 KOXR-KSAN

URF5150 :: KOXR-KSAN

FLIGHT INFORMATION

Flight Status: Arrived
Operator: Unknown
More flights by this operator :: More flights under this callsign
Pilot: Anonymous 17686 (17686)
Aircraft: PILATUS PC-12 EAGLE
(PC12)
More flights by this aircraft type
Origin: KOXR Oxnard
United States
Destination: KSAN San Diego Intl-Lindbergh
United States
More flights between these airports :: More routes between these airports
Route: VTU V208 SXC V208 LAX118R CARDI MZB320R MZB
File this flight plan on PilotEdge
Remarks: TEC VTUP28
Altitude:
(Current/Filed)
9,000ft
Speed:
(Current/Filed)
230kts
Departed: 14-Sep-18 12:50 PM
Arrived: 14-Sep-18 01:36 PM
Distance/Time
Traveled:
134nm/0:46
Distance/Time
To Go:
Arrived

Flight Plot

Page will automatically refresh every two minutes.


Map Options




Map Legend


Flown Route
Filed Route
Departure Airport
Arrival Airport
Navaid (VOR, NDB)
Fix

Horizontal Profiles

Position Reports

Time Latitude Longitude Heading Altitude Ground
Speed
14-Sep-18 12:40 34.199070 -119.206392 114 48ft 0kts
14-Sep-18 12:41 34.199070 -119.206392 114 48ft 0kts
14-Sep-18 12:42 34.199069 -119.206388 114 48ft 0kts
14-Sep-18 12:43 34.199067 -119.206384 114 48ft 0kts
14-Sep-18 12:44 34.199065 -119.206379 114 48ft 0kts
14-Sep-18 12:45 34.199064 -119.206376 114 48ft 0kts
14-Sep-18 12:46 34.199063 -119.206372 114 48ft 0kts
14-Sep-18 12:47 34.199061 -119.206368 114 48ft 0kts
14-Sep-18 12:48 34.199577 -119.205801 56 48ft 8kts
14-Sep-18 12:49 34.199759 -119.200526 91 48ft 15kts
14-Sep-18 12:50 34.199933 -119.197515 11 48ft 0kts
14-Sep-18 12:51 34.200728 -119.197732 273 48ft 15kts
14-Sep-18 12:52 34.199422 -119.229018 264 414ft 170kts
14-Sep-18 12:53 34.196554 -119.293250 267 2034ft 189kts
14-Sep-18 12:54 34.177195 -119.343833 192 4419ft 192kts
14-Sep-18 12:55 34.148247 -119.297632 96 6459ft 206kts
14-Sep-18 12:56 34.140851 -119.228302 101 8463ft 209kts
14-Sep-18 12:57 34.129543 -119.152034 103 9023ft 255kts
14-Sep-18 12:58 34.108833 -119.068818 133 9018ft 255kts
14-Sep-18 12:59 34.046511 -119.043980 176 9017ft 239kts
14-Sep-18 13:00 33.980691 -119.036718 175 9017ft 237kts
14-Sep-18 13:01 33.915068 -119.029810 176 9014ft 236kts
14-Sep-18 13:02 33.849478 -119.022951 176 9013ft 236kts
14-Sep-18 13:03 33.785641 -119.007574 145 9011ft 239kts
14-Sep-18 13:04 33.742175 -118.946254 131 9027ft 242kts
14-Sep-18 13:05 33.698363 -118.884617 132 9031ft 246kts
14-Sep-18 13:06 33.653217 -118.820675 131 9035ft 253kts
14-Sep-18 13:07 33.609094 -118.757378 131 8980ft 255kts
14-Sep-18 13:08 33.563430 -118.691944 131 8986ft 255kts
14-Sep-18 13:09 33.517946 -118.626904 131 8995ft 255kts
14-Sep-18 13:10 33.472138 -118.561525 131 8991ft 255kts
14-Sep-18 13:11 33.427358 -118.497743 131 8994ft 258kts
14-Sep-18 13:12 33.381632 -118.432474 129 9002ft 256kts
14-Sep-18 13:13 33.364523 -118.349817 99 9002ft 260kts
14-Sep-18 13:14 33.353888 -118.264031 100 8999ft 260kts
14-Sep-18 13:15 33.342014 -118.179016 101 9065ft 259kts
14-Sep-18 13:16 33.330332 -118.093763 100 9050ft 260kts
14-Sep-18 13:17 33.318934 -118.008257 100 9039ft 260kts
14-Sep-18 13:18 33.307496 -117.922671 100 9007ft 261kts
14-Sep-18 13:19 33.295990 -117.837075 100 9007ft 260kts
14-Sep-18 13:20 33.284461 -117.751786 100 9007ft 260kts
14-Sep-18 13:21 33.272039 -117.667883 102 9004ft 253kts
14-Sep-18 13:22 33.258883 -117.585793 109 8999ft 251kts
14-Sep-18 13:23 33.213764 -117.522005 135 8129ft 255kts
14-Sep-18 13:24 33.164872 -117.460625 134 7172ft 250kts
14-Sep-18 13:25 33.113611 -117.410958 156 6983ft 232kts
14-Sep-18 13:26 33.054872 -117.378897 156 6988ft 231kts
14-Sep-18 13:27 32.996446 -117.346465 156 6988ft 231kts
14-Sep-18 13:28 32.939941 -117.315119 156 6987ft 232kts
14-Sep-18 13:29 32.881219 -117.282590 156 6987ft 233kts
14-Sep-18 13:30 32.822316 -117.250008 156 6992ft 233kts
14-Sep-18 13:31 32.763164 -117.217174 152 6993ft 235kts
14-Sep-18 13:32 32.739370 -117.145802 94 6444ft 247kts
14-Sep-18 13:33 32.736730 -117.068711 98 4761ft 210kts
14-Sep-18 13:34 32.691406 -117.032892 197 2507ft 209kts
14-Sep-18 13:35 32.696057 -117.087855 303 1734ft 199kts
14-Sep-18 13:36 32.717402 -117.136070 293 893ft 153kts
14-Sep-18 13:37 32.729376 -117.173111 286 188ft 103kts
14-Sep-18 13:38 32.734422 -117.190882 354 20ft 10kts
14-Sep-18 13:39 32.734795 -117.189079 58 20ft 12kts
14-Sep-18 13:40 32.735320 -117.188593 14 20ft 0kts

Navigation Log

Ident Type
1. KOXR Airport
2. VTU Navaid
3. WEEZL Fix
4. SXC Navaid
5. CARDI Fix
6. MZB Navaid
7. KSAN Airport